Terminal Aerodrome Forecast
Issued by NWS

Current Version | Previous Version | Graphics & Text | Print | Product List | Glossary On
Versions: 1 2 3 4 5 6 7 8 9 10 11 12 13 14 15 16 17 18 19 20 21 22 23 24 25 26
139
FTUS41 KILN 282335
TAFLCK
TAF
KLCK 282335Z 2900/2924 02008KT P6SM SCT020 BKN250
     FM290600 34004KT 5SM BR OVC020
     FM290900 34003KT 2SM BR OVC008
     FM291300 32005KT 5SM BR OVC015
     FM291600 28006KT P6SM BKN025=

USA.gov is the U.S. government's official web portal to all federal, state and local government web resources and services.